createdAt,value
2018-08-03T00:01:12.566Z,9.23
2018-08-03T00:03:40.911Z,7.83
2018-08-03T00:06:09.295Z,7.30
2018-08-03T00:08:37.735Z,7.63
2018-08-03T00:11:06.086Z,10.17
2018-08-03T00:13:34.456Z,7.23
2018-08-03T00:16:02.842Z,9.07
2018-08-03T00:18:31.237Z,7.70
2018-08-03T00:20:59.598Z,9.60
2018-08-03T00:23:28.040Z,9.30
2018-08-03T00:25:56.409Z,8.10
2018-08-03T00:28:24.752Z,8.40
2018-08-03T00:30:53.217Z,9.00
2018-08-03T00:33:21.565Z,11.37
2018-08-03T00:35:49.948Z,8.60
2018-08-03T00:38:18.322Z,8.00
2018-08-03T00:40:46.641Z,8.60
2018-08-03T00:43:14.999Z,10.17
2018-08-03T00:45:43.362Z,8.40
2018-08-03T00:48:11.706Z,8.80
2018-08-03T00:50:40.064Z,8.40
2018-08-03T00:53:08.383Z,8.80
2018-08-03T00:55:36.775Z,9.20
2018-08-03T00:58:05.181Z,8.40
2018-08-03T01:00:33.558Z,12.17
2018-08-03T01:03:01.905Z,8.50
2018-08-03T01:05:30.235Z,9.70
2018-08-03T01:07:58.591Z,12.70
2018-08-03T01:10:26.929Z,13.53
2018-08-03T01:12:55.257Z,10.20
2018-08-03T01:15:23.325Z,9.53
2018-08-03T01:17:51.371Z,10.27
2018-08-03T01:20:19.742Z,13.70
2018-08-03T01:22:48.089Z,11.93
2018-08-03T01:25:16.518Z,9.53
2018-08-03T01:27:44.897Z,10.10
2018-08-03T01:30:13.287Z,11.37
2018-08-03T01:32:41.621Z,12.53
2018-08-03T01:35:10.020Z,12.10
2018-08-03T01:37:38.381Z,11.47
2018-08-03T01:40:07.096Z,15.50
2018-08-03T01:42:35.454Z,11.73
2018-08-03T01:45:03.795Z,9.63
2018-08-03T01:47:32.128Z,9.70
2018-08-03T01:50:00.520Z,10.97
2018-08-03T01:52:28.859Z,11.13
2018-08-03T01:54:57.161Z,10.87
2018-08-03T01:57:25.461Z,10.50
2018-08-03T01:59:54.021Z,9.40
2018-08-03T02:02:22.388Z,10.40
2018-08-03T02:04:50.761Z,10.67
2018-08-03T02:07:19.240Z,11.17
2018-08-03T02:09:47.620Z,10.30
2018-08-03T02:12:15.961Z,10.80
2018-08-03T02:14:44.338Z,10.57
2018-08-03T02:17:12.766Z,11.47
2018-08-03T02:19:41.123Z,9.93
2018-08-03T02:22:09.551Z,10.37
2018-08-03T02:24:37.934Z,10.33
2018-08-03T02:27:06.227Z,10.67
2018-08-03T02:29:34.608Z,14.90
2018-08-03T02:32:02.936Z,13.60
2018-08-03T02:34:31.300Z,11.10
2018-08-03T02:36:59.657Z,11.90
2018-08-03T02:39:27.973Z,11.80
2018-08-03T02:41:56.350Z,11.43
2018-08-03T02:44:24.697Z,13.00
2018-08-03T02:46:53.058Z,11.07
2018-08-03T02:49:21.486Z,9.80
2018-08-03T02:51:49.833Z,9.47
2018-08-03T02:54:18.198Z,10.57
2018-08-03T02:56:46.526Z,12.70
2018-08-03T02:59:14.873Z,10.00
2018-08-03T03:01:44.092Z,10.00
2018-08-03T03:04:12.431Z,13.10
2018-08-03T03:06:40.762Z,11.70
2018-08-03T03:09:10.649Z,13.80
2018-08-03T03:11:39.013Z,12.30
2018-08-03T03:14:07.595Z,14.20
2018-08-03T03:16:36.077Z,11.60
2018-08-03T03:19:04.543Z,10.63
2018-08-03T03:21:32.869Z,11.00
2018-08-03T03:24:01.242Z,11.50
2018-08-03T03:26:29.557Z,10.77
2018-08-03T03:28:57.886Z,14.80
2018-08-03T03:31:26.189Z,18.23
2018-08-03T03:33:54.566Z,11.40
2018-08-03T03:36:23.009Z,11.60
2018-08-03T03:38:51.361Z,11.80
2018-08-03T03:41:19.702Z,15.23
2018-08-03T03:43:48.031Z,15.37
2018-08-03T03:46:16.346Z,11.83
2018-08-03T03:48:44.688Z,10.87
2018-08-03T03:51:13.036Z,11.50
2018-08-03T03:53:41.361Z,12.70
2018-08-03T03:56:09.680Z,11.40
2018-08-03T03:58:38.009Z,11.97
2018-08-03T04:01:06.393Z,14.50
2018-08-03T04:03:34.749Z,11.03
2018-08-03T04:06:03.075Z,11.97
2018-08-03T04:08:31.493Z,11.57
2018-08-03T04:10:59.862Z,11.43
2018-08-03T04:13:28.166Z,16.63
2018-08-03T04:15:56.530Z,12.90
2018-08-03T04:18:24.849Z,11.30
2018-08-03T04:20:53.238Z,12.60
2018-08-03T04:23:21.551Z,13.47
2018-08-03T04:25:49.886Z,12.60
2018-08-03T04:28:18.219Z,13.50
2018-08-03T04:30:46.518Z,11.77
2018-08-03T04:33:14.935Z,12.23
2018-08-03T04:35:43.283Z,13.13
2018-08-03T04:38:11.594Z,13.57
2018-08-03T04:40:40.002Z,13.60
2018-08-03T04:43:08.353Z,13.60
2018-08-03T04:45:36.448Z,13.57
2018-08-03T04:48:04.757Z,12.57
2018-08-03T04:50:33.112Z,12.40
2018-08-03T04:53:01.450Z,11.73
2018-08-03T04:55:29.756Z,11.20
2018-08-03T04:57:58.069Z,12.63
2018-08-03T05:00:26.474Z,11.60
2018-08-03T05:02:54.818Z,11.43
2018-08-03T05:05:23.173Z,12.00
2018-08-03T05:07:51.473Z,12.00
2018-08-03T05:10:19.801Z,11.70
2018-08-03T05:12:48.174Z,11.67
2018-08-03T05:15:16.458Z,11.50
2018-08-03T05:17:44.813Z,11.53
2018-08-03T05:20:13.167Z,11.93
2018-08-03T05:22:41.550Z,11.57
2018-08-03T05:25:09.885Z,11.10
2018-08-03T05:27:38.230Z,11.40
2018-08-03T05:30:08.073Z,10.33
2018-08-03T05:32:36.452Z,11.53
2018-08-03T05:35:05.510Z,11.37
2018-08-03T05:37:33.829Z,12.07
2018-08-03T05:40:02.167Z,11.63
2018-08-03T05:42:30.592Z,12.03
2018-08-03T05:44:58.930Z,14.00
2018-08-03T05:47:27.242Z,9.83
2018-08-03T05:49:55.591Z,9.63
2018-08-03T05:52:24.054Z,9.37
2018-08-03T05:54:52.344Z,9.87
2018-08-03T05:57:20.710Z,8.93
2018-08-03T05:59:49.159Z,9.33
2018-08-03T06:02:17.564Z,7.00
2018-08-03T06:04:45.888Z,7.67
2018-08-03T06:07:14.243Z,7.70
2018-08-03T06:09:42.584Z,10.00
2018-08-03T06:12:10.945Z,7.80
2018-08-03T06:14:39.359Z,7.63
2018-08-03T06:17:07.704Z,8.53
2018-08-03T06:19:36.026Z,9.00
2018-08-03T06:22:04.428Z,9.20
2018-08-03T06:24:33.361Z,8.60
2018-08-03T06:27:01.953Z,8.00
2018-08-03T06:29:30.952Z,8.23
2018-08-03T06:31:59.257Z,8.63
2018-08-03T06:34:27.570Z,7.67
2018-08-03T06:36:55.885Z,8.13
2018-08-03T06:39:24.224Z,7.73
2018-08-03T06:41:52.550Z,7.00
2018-08-03T06:44:20.932Z,7.00
2018-08-03T06:46:49.299Z,8.00
2018-08-03T06:49:17.679Z,8.40
2018-08-03T06:51:46.005Z,9.10
2018-08-03T06:54:14.342Z,8.20
2018-08-03T06:56:42.713Z,7.50
2018-08-03T06:59:11.033Z,8.60
2018-08-03T07:01:39.374Z,8.47
2018-08-03T07:04:07.869Z,11.93
2018-08-03T07:06:36.351Z,9.17
2018-08-03T07:09:07.829Z,8.20
2018-08-03T07:11:36.381Z,10.20
2018-08-03T07:14:04.768Z,9.63
2018-08-03T07:16:33.177Z,8.67
2018-08-03T07:19:01.525Z,11.30
2018-08-03T07:21:29.900Z,8.33
2018-08-03T07:23:58.281Z,8.43
2018-08-03T07:26:26.644Z,7.97
2018-08-03T07:28:55.015Z,9.10
2018-08-03T07:31:23.369Z,8.80
2018-08-03T07:33:51.850Z,8.33
2018-08-03T07:36:20.685Z,8.03
2018-08-03T07:38:49.302Z,8.00
2018-08-03T07:41:17.470Z,8.83
2018-08-03T07:43:45.910Z,8.30
2018-08-03T07:46:14.325Z,7.77
2018-08-03T07:48:42.353Z,9.10
2018-08-03T07:51:10.739Z,9.10
2018-08-03T07:53:39.071Z,9.30
2018-08-03T07:56:07.413Z,9.03
2018-08-03T07:58:35.888Z,9.37
2018-08-03T08:01:04.221Z,10.40
2018-08-03T08:03:32.595Z,9.17
2018-08-03T08:06:00.926Z,10.40
2018-08-03T08:08:29.357Z,9.97
2018-08-03T08:10:57.769Z,8.90
2018-08-03T08:13:26.245Z,9.30
2018-08-03T08:15:54.669Z,10.10
2018-08-03T08:18:23.039Z,9.83
2018-08-03T08:20:51.394Z,9.20
2018-08-03T08:23:19.796Z,9.37
2018-08-03T08:25:48.112Z,9.90
2018-08-03T08:28:16.514Z,9.43
2018-08-03T08:30:44.817Z,9.70
2018-08-03T08:33:13.145Z,10.23
2018-08-03T08:35:41.545Z,9.87
2018-08-03T08:38:09.947Z,9.10
2018-08-03T08:40:38.318Z,9.30
2018-08-03T08:43:06.729Z,10.20
2018-08-03T08:45:35.118Z,12.60
2018-08-03T08:48:03.463Z,9.53
2018-08-03T08:50:31.917Z,10.17
2018-08-03T08:53:01.830Z,10.53
2018-08-03T08:55:33.019Z,11.37
2018-08-03T08:58:09.030Z,9.20
2018-08-03T09:00:38.506Z,10.00
2018-08-03T09:03:13.214Z,9.90
2018-08-03T09:05:41.927Z,10.20
2018-08-03T09:08:10.383Z,9.63
2018-08-03T09:10:39.288Z,10.93
2018-08-03T09:13:08.336Z,8.83
2018-08-03T09:15:37.524Z,9.30
2018-08-03T09:18:06.035Z,8.77
2018-08-03T09:20:34.501Z,8.37
2018-08-03T09:23:04.596Z,8.73
2018-08-03T09:25:32.959Z,7.83
2018-08-03T09:28:01.580Z,8.20
2018-08-03T09:30:30.101Z,9.53
2018-08-03T09:32:58.948Z,8.03
2018-08-03T09:35:27.513Z,7.77
2018-08-03T09:37:56.133Z,8.17
2018-08-03T09:40:24.588Z,9.30
2018-08-03T09:42:53.002Z,7.67
2018-08-03T09:45:21.390Z,7.73
2018-08-03T09:47:49.505Z,7.27
2018-08-03T09:50:22.208Z,7.60
2018-08-03T09:52:50.732Z,8.90
2018-08-03T09:55:19.247Z,7.93
2018-08-03T09:57:47.328Z,8.23
2018-08-03T10:00:16.483Z,8.27
2018-08-03T10:02:45.688Z,9.23
2018-08-03T10:05:14.090Z,8.87
2018-08-03T10:07:42.431Z,7.70
2018-08-03T10:10:10.881Z,8.47
2018-08-03T10:12:39.295Z,7.77
2018-08-03T10:15:07.651Z,7.83
2018-08-03T10:17:36.057Z,8.27
2018-08-03T10:20:04.858Z,7.97
2018-08-03T10:22:33.256Z,8.53
2018-08-03T10:25:01.644Z,7.77
2018-08-03T10:27:30.150Z,8.13
2018-08-03T10:29:58.595Z,8.67
2018-08-03T10:32:26.975Z,8.27
2018-08-03T10:34:55.389Z,8.00
2018-08-03T10:37:23.821Z,8.37
2018-08-03T10:39:52.316Z,7.60
2018-08-03T10:42:20.769Z,8.50
2018-08-03T10:44:49.145Z,7.80
2018-08-03T10:47:17.737Z,7.80
2018-08-03T10:49:46.319Z,7.70
2018-08-03T10:52:14.785Z,7.10
2018-08-03T10:54:43.199Z,8.03
2018-08-03T10:57:11.654Z,8.50
2018-08-03T10:59:40.151Z,10.30
2018-08-03T11:02:09.232Z,8.40
2018-08-03T11:04:37.980Z,8.83
2018-08-03T11:07:06.495Z,8.77
2018-08-03T11:09:34.877Z,9.00
2018-08-03T11:12:03.640Z,7.67
2018-08-03T11:14:32.885Z,9.63
2018-08-03T11:17:01.642Z,8.87
2018-08-03T11:19:30.329Z,9.07
2018-08-03T11:21:58.837Z,9.10
2018-08-03T11:24:27.271Z,8.70
2018-08-03T11:26:55.677Z,8.70
2018-08-03T11:29:23.785Z,9.30
2018-08-03T11:31:52.267Z,8.20
2018-08-03T11:34:20.659Z,8.30
2018-08-03T11:36:49.136Z,8.63
2018-08-03T11:39:17.532Z,9.07
2018-08-03T11:41:46.275Z,8.47
2018-08-03T11:44:14.816Z,8.67
2018-08-03T11:46:43.314Z,8.67
2018-08-03T11:49:11.432Z,8.63
2018-08-03T11:51:39.822Z,8.57
2018-08-03T11:54:08.255Z,8.50
2018-08-03T11:56:36.651Z,8.17
2018-08-03T11:59:05.028Z,8.23
2018-08-03T12:01:33.560Z,7.70
2018-08-03T12:04:01.889Z,8.77
2018-08-03T12:06:30.336Z,7.70
2018-08-03T12:08:58.796Z,7.63
2018-08-03T12:11:27.137Z,11.00
2018-08-03T12:13:55.556Z,7.97
2018-08-03T12:16:23.958Z,7.23
2018-08-03T12:18:52.408Z,8.13
2018-08-03T12:21:20.811Z,7.27
2018-08-03T12:23:49.262Z,8.37
2018-08-03T12:26:17.698Z,7.23
2018-08-03T12:28:46.174Z,7.20
2018-08-03T12:31:14.732Z,9.00
2018-08-03T12:33:43.119Z,7.70
2018-08-03T12:36:11.640Z,7.70
2018-08-03T12:38:40.033Z,7.70
2018-08-03T12:41:08.403Z,6.93
2018-08-03T12:43:36.796Z,7.20
2018-08-03T12:46:05.179Z,8.27
2018-08-03T12:48:33.537Z,8.07
2018-08-03T12:51:01.881Z,7.87
2018-08-03T12:53:30.296Z,8.80
2018-08-03T12:55:58.689Z,8.20
2018-08-03T12:58:27.046Z,8.20
2018-08-03T13:00:55.474Z,8.13
2018-08-03T13:03:23.844Z,8.57
2018-08-03T13:05:52.223Z,8.63
2018-08-03T13:08:20.786Z,8.87
2018-08-03T13:10:49.012Z,7.90
2018-08-03T13:13:17.445Z,8.97
2018-08-03T13:15:45.784Z,7.60
2018-08-03T13:18:14.219Z,8.93
2018-08-03T13:20:42.627Z,7.57
2018-08-03T13:23:11.148Z,7.87
2018-08-03T13:25:39.553Z,7.30
2018-08-03T13:28:07.904Z,8.63
2018-08-03T13:30:36.265Z,7.70
2018-08-03T13:33:04.704Z,8.10
2018-08-03T13:35:33.041Z,7.90
2018-08-03T13:38:01.414Z,8.13
2018-08-03T13:40:29.816Z,7.97
2018-08-03T13:42:58.171Z,8.17
2018-08-03T13:45:26.557Z,8.50
2018-08-03T13:47:54.895Z,8.33
2018-08-03T13:50:23.317Z,10.30
2018-08-03T13:52:51.613Z,7.80
2018-08-03T13:55:20.045Z,7.60
2018-08-03T13:57:48.476Z,8.20
2018-08-03T14:00:16.810Z,8.00
2018-08-03T14:02:45.165Z,8.10
2018-08-03T14:05:13.580Z,8.08
2018-08-03T14:07:41.934Z,8.85
2018-08-03T14:10:10.685Z,7.50
2018-08-03T14:12:39.210Z,7.53
2018-08-03T14:15:08.043Z,7.60
2018-08-03T14:17:36.467Z,7.33
2018-08-03T14:20:06.094Z,7.90
2018-08-03T14:22:34.434Z,7.90
2018-08-03T14:25:02.786Z,8.45
2018-08-03T14:27:31.141Z,7.72
2018-08-03T14:29:59.557Z,9.05
2018-08-03T14:32:27.893Z,7.95
2018-08-03T14:34:56.272Z,7.08
2018-08-03T14:37:24.688Z,9.20
2018-08-03T14:39:53.086Z,8.20
2018-08-03T14:42:21.483Z,8.08
2018-08-03T14:44:49.861Z,8.25
2018-08-03T14:47:18.241Z,8.20
2018-08-03T14:49:46.336Z,8.05
2018-08-03T14:52:14.806Z,8.00
2018-08-03T14:54:43.170Z,8.10
2018-08-03T14:57:11.582Z,7.97
2018-08-03T14:59:39.958Z,8.20
2018-08-03T15:02:08.440Z,8.50
2018-08-03T15:04:36.801Z,7.28
2018-08-03T15:07:05.219Z,8.00
2018-08-03T15:09:33.634Z,8.35
2018-08-03T15:12:02.075Z,7.73
2018-08-03T15:14:30.429Z,8.90
2018-08-03T15:16:58.812Z,8.37
2018-08-03T15:19:27.208Z,9.10
2018-08-03T15:21:55.552Z,8.00
2018-08-03T15:24:23.936Z,8.30
2018-08-03T15:26:52.472Z,7.50
2018-08-03T15:29:20.865Z,8.43
2018-08-03T15:31:49.296Z,7.80
2018-08-03T15:34:17.746Z,7.87
2018-08-03T15:36:46.312Z,7.83
2018-08-03T15:39:14.669Z,7.62
2018-08-03T15:41:43.049Z,8.45
2018-08-03T15:44:11.445Z,8.13
2018-08-03T15:46:39.905Z,7.42
2018-08-03T15:49:08.340Z,7.80
2018-08-03T15:51:36.877Z,7.92
2018-08-03T15:54:05.230Z,7.87
2018-08-03T15:56:33.609Z,7.30
2018-08-03T15:59:02.077Z,7.12
2018-08-03T16:01:30.469Z,7.15
2018-08-03T16:03:58.823Z,7.58
2018-08-03T16:06:27.219Z,7.35
2018-08-03T16:08:55.603Z,7.55
2018-08-03T16:11:23.937Z,8.05
2018-08-03T16:13:52.285Z,7.42
2018-08-03T16:16:20.748Z,8.15
2018-08-03T16:18:49.192Z,7.72
2018-08-03T16:21:17.684Z,7.72
2018-08-03T16:23:46.057Z,7.20
2018-08-03T16:26:14.466Z,7.92
2018-08-03T16:28:42.899Z,6.97
2018-08-03T16:31:11.293Z,8.05
2018-08-03T16:33:39.688Z,7.83
2018-08-03T16:36:08.037Z,8.33
2018-08-03T16:38:36.154Z,8.18
2018-08-03T16:41:05.080Z,8.25
2018-08-03T16:43:33.441Z,10.50
2018-08-03T16:46:01.877Z,9.58
2018-08-03T16:48:30.245Z,7.15
2018-08-03T16:50:58.580Z,7.83
2018-08-03T16:53:26.979Z,8.13
2018-08-03T16:55:55.327Z,7.80
2018-08-03T16:58:23.734Z,7.92
2018-08-03T17:00:52.077Z,8.00
2018-08-03T17:03:20.553Z,7.85
2018-08-03T17:05:48.895Z,7.67
2018-08-03T17:08:17.233Z,7.95
2018-08-03T17:10:45.569Z,7.40
2018-08-03T17:13:13.991Z,7.42
2018-08-03T17:15:42.365Z,7.28
2018-08-03T17:18:10.743Z,8.15
2018-08-03T17:20:39.138Z,7.83
2018-08-03T17:23:07.492Z,7.50
2018-08-03T17:25:35.821Z,8.20
2018-08-03T17:28:04.450Z,8.13
2018-08-03T17:30:32.766Z,8.60
2018-08-03T17:33:01.092Z,7.20
2018-08-03T17:35:29.481Z,8.07
2018-08-03T17:37:57.864Z,10.20
2018-08-03T17:40:26.249Z,8.00
2018-08-03T17:42:54.662Z,8.43
2018-08-03T17:45:22.968Z,11.30
2018-08-03T17:47:51.329Z,7.90
2018-08-03T17:50:19.424Z,9.33
2018-08-03T17:52:47.802Z,16.17
2018-08-03T17:55:16.132Z,12.90
2018-08-03T17:57:44.502Z,10.40
2018-08-03T18:00:13.412Z,8.83
2018-08-03T18:02:41.762Z,9.53
2018-08-03T18:05:10.141Z,10.90
2018-08-03T18:07:38.481Z,7.33
2018-08-03T18:10:07.189Z,7.43
2018-08-03T18:12:35.537Z,7.17
2018-08-03T18:15:04.390Z,8.10
2018-08-03T18:17:32.762Z,7.03
2018-08-03T18:20:01.138Z,6.60
2018-08-03T18:22:29.485Z,10.17
2018-08-03T18:24:57.827Z,9.17
2018-08-03T18:27:26.194Z,7.40
2018-08-03T18:29:54.291Z,6.87
2018-08-03T18:32:22.701Z,7.30
2018-08-03T18:34:51.045Z,17.63
2018-08-03T18:37:19.409Z,7.47
2018-08-03T18:39:47.779Z,8.23
2018-08-03T18:42:16.146Z,7.73
2018-08-03T18:44:44.484Z,13.13
2018-08-03T18:47:12.858Z,8.27
2018-08-03T18:49:41.249Z,8.03
2018-08-03T18:52:09.650Z,8.53
2018-08-03T18:54:38.028Z,7.90
2018-08-03T18:57:06.460Z,10.40
2018-08-03T18:59:34.930Z,7.90
2018-08-03T19:02:03.283Z,7.80
2018-08-03T19:04:31.664Z,9.43
2018-08-03T19:07:00.016Z,7.10
2018-08-03T19:09:28.360Z,8.80
2018-08-03T19:11:56.717Z,7.10
2018-08-03T19:14:25.053Z,7.47
2018-08-03T19:16:53.387Z,8.40
2018-08-03T19:19:21.805Z,6.87
2018-08-03T19:21:50.152Z,7.60
2018-08-03T19:24:18.518Z,9.87
2018-08-03T19:26:46.871Z,7.93
2018-08-03T19:29:15.248Z,8.17
2018-08-03T19:31:43.618Z,7.53
2018-08-03T19:34:12.033Z,8.43
2018-08-03T19:36:40.403Z,8.10
2018-08-03T19:39:10.120Z,8.50
2018-08-03T19:41:39.099Z,8.80
2018-08-03T19:44:07.521Z,7.33
2018-08-03T19:46:35.981Z,7.50
2018-08-03T19:49:04.363Z,8.43
2018-08-03T19:51:32.743Z,10.10
2018-08-03T19:54:01.107Z,8.50
2018-08-03T19:56:29.506Z,8.00
2018-08-03T19:58:57.907Z,8.60
2018-08-03T20:01:26.224Z,7.70
2018-08-03T20:03:54.584Z,9.90
2018-08-03T20:06:22.948Z,9.00
2018-08-03T20:08:51.293Z,9.80
2018-08-03T20:11:19.676Z,7.87
2018-08-03T20:13:48.198Z,10.53
2018-08-03T20:16:16.496Z,9.10
2018-08-03T20:18:44.879Z,9.43
2018-08-03T20:21:13.288Z,9.40
2018-08-03T20:23:41.651Z,8.53
2018-08-03T20:26:10.045Z,9.37
2018-08-03T20:28:38.466Z,8.70
2018-08-03T20:31:07.051Z,9.30
2018-08-03T20:33:35.409Z,9.47
2018-08-03T20:36:03.791Z,8.43
2018-08-03T20:38:32.182Z,10.07
2018-08-03T20:41:00.529Z,7.47
2018-08-03T20:43:28.939Z,11.50
2018-08-03T20:45:57.380Z,10.00
2018-08-03T20:48:25.757Z,8.53
2018-08-03T20:50:54.256Z,8.80
2018-08-03T20:53:22.644Z,8.90
2018-08-03T20:55:50.983Z,10.00
2018-08-03T20:58:19.373Z,8.70
2018-08-03T21:00:47.458Z,8.83
2018-08-03T21:03:15.822Z,11.20
2018-08-03T21:05:44.192Z,13.33
2018-08-03T21:08:12.232Z,10.80
2018-08-03T21:10:40.626Z,10.70
2018-08-03T21:13:08.992Z,9.57
2018-08-03T21:15:37.340Z,10.70
2018-08-03T21:18:05.721Z,10.33
2018-08-03T21:20:34.063Z,10.73
2018-08-03T21:23:02.490Z,13.50
2018-08-03T21:25:30.869Z,9.20
2018-08-03T21:27:59.242Z,10.50
2018-08-03T21:30:27.597Z,9.20
2018-08-03T21:32:55.871Z,9.83
2018-08-03T21:35:24.203Z,11.20
2018-08-03T21:37:52.296Z,13.80
2018-08-03T21:40:20.393Z,12.67
2018-08-03T21:42:48.788Z,13.70
2018-08-03T21:45:17.146Z,16.93
2018-08-03T21:47:45.533Z,10.43
2018-08-03T21:50:13.864Z,10.53
2018-08-03T21:52:42.225Z,9.70
2018-08-03T21:55:10.537Z,11.67
2018-08-03T21:57:38.933Z,12.60
2018-08-03T22:00:09.902Z,11.37
2018-08-03T22:02:38.256Z,11.63
2018-08-03T22:05:06.610Z,9.77
2018-08-03T22:07:34.980Z,10.20
2018-08-03T22:10:03.325Z,11.80
2018-08-03T22:12:31.724Z,11.13
2018-08-03T22:15:00.057Z,11.10
2018-08-03T22:17:28.603Z,10.67
2018-08-03T22:19:57.191Z,10.47
2018-08-03T22:22:25.531Z,9.53
2018-08-03T22:24:53.892Z,10.80
2018-08-03T22:27:22.246Z,10.83
2018-08-03T22:29:50.598Z,11.40
2018-08-03T22:32:18.965Z,10.50
2018-08-03T22:34:47.312Z,11.10
2018-08-03T22:37:15.692Z,12.70
2018-08-03T22:39:44.043Z,10.87
2018-08-03T22:42:12.429Z,9.60
2018-08-03T22:44:40.766Z,10.30
2018-08-03T22:47:09.121Z,10.90
2018-08-03T22:49:37.473Z,9.77
2018-08-03T22:52:05.797Z,10.20
2018-08-03T22:54:34.138Z,15.53
2018-08-03T22:57:02.512Z,14.33
2018-08-03T22:59:30.873Z,11.00
2018-08-03T23:01:59.274Z,12.50
2018-08-03T23:04:27.610Z,11.03
2018-08-03T23:06:55.945Z,12.43
2018-08-03T23:09:24.269Z,11.07
2018-08-03T23:11:52.567Z,10.33
2018-08-03T23:14:20.899Z,10.50
2018-08-03T23:16:49.227Z,10.63
2018-08-03T23:19:17.579Z,14.10
2018-08-03T23:21:45.917Z,11.33
2018-08-03T23:24:14.262Z,12.40
2018-08-03T23:26:42.645Z,11.10
2018-08-03T23:29:10.961Z,10.37
2018-08-03T23:31:39.295Z,11.13
2018-08-03T23:34:07.619Z,11.10
2018-08-03T23:36:35.930Z,12.17
2018-08-03T23:39:05.960Z,10.90
2018-08-03T23:41:34.328Z,11.93
2018-08-03T23:44:02.657Z,12.17
2018-08-03T23:46:30.992Z,12.43
2018-08-03T23:48:59.318Z,11.37
2018-08-03T23:51:27.751Z,10.10
2018-08-03T23:53:56.115Z,14.20
2018-08-03T23:56:24.429Z,11.10
2018-08-03T23:58:52.779Z,12.07
